createdAt,value
2022-12-01T00:04:29.625Z,1006.93
2022-12-01T00:09:29.856Z,1006.92
2022-12-01T00:14:29.571Z,1006.86
2022-12-01T00:19:29.542Z,1006.86
2022-12-01T00:24:29.400Z,1006.82
2022-12-01T00:29:32.666Z,1006.87
2022-12-01T00:34:29.248Z,1006.78
2022-12-01T00:39:29.235Z,1006.86
2022-12-01T00:44:29.117Z,1006.90
2022-12-01T00:49:29.281Z,1006.91
2022-12-01T00:54:29.016Z,1006.86
2022-12-01T00:59:29.068Z,1006.91
2022-12-01T01:04:29.044Z,1007.02
2022-12-01T01:09:28.856Z,1007.00
2022-12-01T01:14:28.815Z,1007.01
2022-12-01T01:19:28.783Z,1006.98
2022-12-01T01:24:28.581Z,1006.91
2022-12-01T01:29:31.702Z,1006.89
2022-12-01T01:34:28.471Z,1006.92
2022-12-01T01:39:29.102Z,1006.88
2022-12-01T01:44:28.421Z,1006.91
2022-12-01T01:49:28.367Z,1006.96
2022-12-01T01:54:28.227Z,1006.95
2022-12-01T01:59:28.227Z,1007.12
2022-12-01T02:04:28.111Z,1007.06
2022-12-01T02:09:28.136Z,1007.04
2022-12-01T02:14:28.127Z,1006.99
2022-12-01T02:19:27.976Z,1006.91
2022-12-01T02:24:27.826Z,1006.81
2022-12-01T02:29:30.855Z,1006.75
2022-12-01T02:34:36.006Z,1006.92
2022-12-01T02:39:35.073Z,1006.84
2022-12-01T02:44:27.800Z,1006.87
2022-12-01T02:49:27.497Z,1006.86
2022-12-01T02:54:27.467Z,1006.90
2022-12-01T02:59:27.372Z,1006.93
2022-12-01T03:04:27.419Z,1006.92
2022-12-01T03:09:27.330Z,1006.90
2022-12-01T03:14:27.230Z,1006.94
2022-12-01T03:19:27.081Z,1006.98
2022-12-01T03:24:27.276Z,1006.98
2022-12-01T03:29:30.113Z,1006.95
2022-12-01T03:34:26.916Z,1006.90
2022-12-01T03:39:26.950Z,1006.94
2022-12-01T03:44:26.740Z,1006.98
2022-12-01T03:49:26.880Z,1006.92
2022-12-01T03:54:26.658Z,1007.01
2022-12-01T03:59:26.640Z,1007.10
2022-12-01T04:04:26.552Z,1007.08
2022-12-01T04:09:26.519Z,1007.01
2022-12-01T04:14:26.436Z,1006.98
2022-12-01T04:19:26.384Z,1006.94
2022-12-01T04:24:26.300Z,1006.95
2022-12-01T04:29:29.450Z,1007.08
2022-12-01T04:34:26.225Z,1007.14
2022-12-01T04:39:26.124Z,1007.19
2022-12-01T04:44:28.969Z,1007.22
2022-12-01T04:49:27.731Z,1007.22
2022-12-01T04:54:25.860Z,1007.23
2022-12-01T04:59:25.954Z,1007.28
2022-12-01T05:04:25.804Z,1007.37
2022-12-01T05:09:25.693Z,1007.33
2022-12-01T05:14:25.799Z,1007.51
2022-12-01T05:19:25.680Z,1007.43
2022-12-01T05:24:25.631Z,1007.38
2022-12-01T05:29:28.497Z,1007.50
2022-12-01T05:34:25.340Z,1007.43
2022-12-01T05:39:25.345Z,1007.45
2022-12-01T05:44:25.275Z,1007.49
2022-12-01T05:49:25.182Z,1007.45
2022-12-01T05:54:25.120Z,1007.45
2022-12-01T05:59:26.170Z,1007.38
2022-12-01T06:04:25.138Z,1007.43
2022-12-01T06:09:25.185Z,1007.46
2022-12-01T06:14:24.796Z,1007.46
2022-12-01T06:19:24.831Z,1007.48
2022-12-01T06:24:24.870Z,1007.56
2022-12-01T06:29:27.654Z,1007.59
2022-12-01T06:34:24.698Z,1007.70
2022-12-01T06:39:24.525Z,1007.75
2022-12-01T06:44:24.493Z,1007.78
2022-12-01T06:49:24.381Z,1007.86
2022-12-01T06:54:24.456Z,1007.80
2022-12-01T06:59:24.231Z,1007.85
2022-12-01T07:04:24.152Z,1007.81
2022-12-01T07:09:32.062Z,1007.88
2022-12-01T07:14:24.044Z,1007.99
2022-12-01T07:19:24.112Z,1008.04
2022-12-01T07:24:23.930Z,1008.14
2022-12-01T07:29:27.005Z,1008.11
2022-12-01T07:34:23.879Z,1008.10
2022-12-01T07:39:23.805Z,1008.18
2022-12-01T07:44:23.651Z,1008.21
2022-12-01T07:49:24.038Z,1008.22
2022-12-01T07:54:23.580Z,1008.27
2022-12-01T07:59:23.660Z,1008.26
2022-12-01T08:04:23.356Z,1008.27
2022-12-01T08:09:25.021Z,1008.33
2022-12-01T08:14:23.259Z,1008.32
2022-12-01T08:19:24.162Z,1008.33
2022-12-01T08:24:23.093Z,1008.31
2022-12-01T08:29:26.287Z,1008.32
2022-12-01T08:34:22.975Z,1008.37
2022-12-01T08:39:22.978Z,1008.40
2022-12-01T08:44:23.112Z,1008.37
2022-12-01T08:49:22.813Z,1008.39
2022-12-01T08:54:22.887Z,1008.45
2022-12-01T08:59:22.712Z,1008.44
2022-12-01T09:04:22.790Z,1008.48
2022-12-01T09:09:22.692Z,1008.54
2022-12-01T09:14:22.524Z,1008.55
2022-12-01T09:19:25.007Z,1008.59
2022-12-01T09:24:22.637Z,1008.54
2022-12-01T09:29:25.832Z,1008.54
2022-12-01T09:34:22.513Z,1008.59
2022-12-01T09:39:24.897Z,1008.56
2022-12-01T09:44:22.112Z,1008.59
2022-12-01T09:49:22.213Z,1008.52
2022-12-01T09:54:22.052Z,1008.53
2022-12-01T09:59:22.260Z,1008.49
2022-12-01T10:04:21.892Z,1008.41
2022-12-01T10:09:21.831Z,1008.36
2022-12-01T10:14:21.715Z,1008.37
2022-12-01T10:19:21.833Z,1008.27
2022-12-01T10:24:21.820Z,1008.20
2022-12-01T10:29:24.643Z,1008.19
2022-12-01T10:34:21.422Z,1008.07
2022-12-01T10:39:21.568Z,1008.05
2022-12-01T10:44:22.085Z,1008.02
2022-12-01T10:49:21.356Z,1008.04
2022-12-01T10:54:21.290Z,1008.03
2022-12-01T10:59:21.310Z,1008.12
2022-12-01T11:04:21.140Z,1008.08
2022-12-01T11:09:25.996Z,1007.99
2022-12-01T11:14:22.118Z,1008.04
2022-12-01T11:19:26.932Z,1008.09
2022-12-01T11:24:22.221Z,1007.97
2022-12-01T11:29:23.971Z,1007.95
2022-12-01T11:34:21.144Z,1007.91
2022-12-01T11:39:20.995Z,1007.90
2022-12-01T11:44:50.884Z,1007.82
2022-12-01T11:49:21.842Z,1007.81
2022-12-01T11:54:20.534Z,1007.79
2022-12-01T11:59:20.486Z,1007.75
2022-12-01T12:04:20.345Z,1007.66
2022-12-01T12:09:20.235Z,1007.70
2022-12-01T12:14:20.088Z,1007.72
2022-12-01T12:19:22.529Z,1007.75
2022-12-01T12:25:31.665Z,1007.63
2022-12-01T12:30:31.593Z,1007.65
2022-12-01T12:35:31.506Z,1007.68
2022-12-01T12:40:31.581Z,1007.64
2022-12-01T12:45:31.939Z,1007.63
2022-12-01T12:50:31.505Z,1007.69
2022-12-01T12:55:31.330Z,1007.73
2022-12-01T13:00:31.238Z,1007.67
2022-12-01T13:05:31.240Z,1007.63
2022-12-01T13:10:31.170Z,1007.70
2022-12-01T13:15:34.081Z,1007.67
2022-12-01T13:20:30.908Z,1007.69
2022-12-01T13:25:31.065Z,1007.67
2022-12-01T13:30:30.830Z,1007.69
2022-12-01T13:35:30.857Z,1007.70
2022-12-01T13:40:30.632Z,1007.67
2022-12-01T13:45:30.800Z,1007.64
2022-12-01T13:50:30.550Z,1007.59
2022-12-01T13:55:30.760Z,1007.58
2022-12-01T14:00:30.454Z,1007.52
2022-12-01T14:05:38.235Z,1007.48
2022-12-01T14:10:30.325Z,1007.38
2022-12-01T14:15:33.252Z,1007.39
2022-12-01T14:20:30.141Z,1007.46
2022-12-01T14:25:30.265Z,1007.54
2022-12-01T14:30:29.975Z,1007.53
2022-12-01T14:35:30.143Z,1007.62
2022-12-01T14:40:29.865Z,1007.66
2022-12-01T14:45:29.856Z,1007.60
2022-12-01T14:50:29.940Z,1007.60
2022-12-01T14:55:29.741Z,1007.59
2022-12-01T15:00:29.626Z,1007.56
2022-12-01T15:05:29.746Z,1007.52
2022-12-01T15:10:29.615Z,1007.52
2022-12-01T15:15:32.474Z,1007.48
2022-12-01T15:20:29.433Z,1007.49
2022-12-01T15:25:29.407Z,1007.53
2022-12-01T15:30:29.328Z,1007.48
2022-12-01T15:35:29.591Z,1007.50
2022-12-01T15:45:30.204Z,1007.66
2022-12-01T15:50:29.208Z,1007.68
2022-12-01T15:55:29.106Z,1007.66
2022-12-01T16:00:28.835Z,1007.66
2022-12-01T16:05:28.870Z,1007.73
2022-12-01T16:10:29.018Z,1007.69
2022-12-01T16:15:32.006Z,1007.69
2022-12-01T16:20:28.806Z,1007.72
2022-12-01T16:25:28.688Z,1007.75
2022-12-01T16:30:28.531Z,1007.80
2022-12-01T16:35:28.595Z,1007.85
2022-12-01T16:40:28.415Z,1007.88
2022-12-01T16:45:51.763Z,1007.92
2022-12-01T16:50:28.206Z,1007.97
2022-12-01T16:55:28.319Z,1007.93
2022-12-01T17:00:28.143Z,1007.97
2022-12-01T17:05:28.157Z,1007.99
2022-12-01T17:10:27.991Z,1007.97
2022-12-01T17:15:31.082Z,1007.93
2022-12-01T17:20:28.158Z,1007.91
2022-12-01T17:25:27.967Z,1007.89
2022-12-01T17:30:27.703Z,1007.92
2022-12-01T17:35:27.831Z,1007.94
2022-12-01T17:40:27.606Z,1007.96
2022-12-01T17:45:35.375Z,1007.94
2022-12-01T17:50:35.203Z,1008.01
2022-12-01T17:55:27.371Z,1008.00
2022-12-01T18:00:27.623Z,1007.98
2022-12-01T18:05:27.424Z,1008.00
2022-12-01T18:10:27.315Z,1007.98
2022-12-01T18:15:34.484Z,1007.93
2022-12-01T18:20:27.044Z,1007.93
2022-12-01T18:25:27.081Z,1007.86
2022-12-01T18:30:27.306Z,1007.90
2022-12-01T18:35:31.592Z,1007.89
2022-12-01T18:40:28.078Z,1007.85
2022-12-01T18:45:26.715Z,1007.84
2022-12-01T18:50:27.021Z,1007.83
2022-12-01T18:55:26.731Z,1007.83
2022-12-01T19:00:26.716Z,1007.78
2022-12-01T19:05:26.460Z,1007.75
2022-12-01T19:10:26.597Z,1007.81
2022-12-01T19:15:29.455Z,1007.73
2022-12-01T19:20:26.428Z,1007.72
2022-12-01T19:25:26.505Z,1007.67
2022-12-01T19:30:26.159Z,1007.67
2022-12-01T19:35:26.230Z,1007.71
2022-12-01T19:40:26.240Z,1007.73
2022-12-01T19:45:26.360Z,1007.77
2022-12-01T19:50:26.065Z,1007.74
2022-12-01T19:55:26.013Z,1007.80
2022-12-01T20:00:25.913Z,1007.72
2022-12-01T20:05:25.974Z,1007.81
2022-12-01T20:10:26.122Z,1007.78
2022-12-01T23:23:20.581Z,1007.08
2022-12-01T23:28:20.478Z,1006.97
2022-12-01T23:53:27.663Z,1006.82
2022-12-01T23:58:27.519Z,1006.79
